Time;durP1;ratioP1;P1;durP2;ratioP2;P2;SDS_P1;SDS_P2;PMS_P1;PMS_P2;Temp;Humidity;BMP_temperature;BMP_pressure;BME280_temperature;BME280_humidity;BME280_pressure;Samples;Min_cycle;Max_cycle;Signal;HPM_P1;HPM_P2
2022/08/26 00:01:13;;;;;;;7.40;5.25;;;23.70;90.60;;;;;;5033427;28;20037;-53
2022/08/26 00:03:38;;;;;;;6.07;4.97;;;23.80;90.60;;;;;;5032907;28;20029;-52
2022/08/26 00:06:05;;;;;;;10.18;6.03;;;23.80;90.60;;;;;;5033159;28;20504;-52
2022/08/26 00:08:30;;;;;;;11.85;5.72;;;23.70;90.70;;;;;;5033394;28;20449;-50
2022/08/26 00:10:56;;;;;;;9.13;5.63;;;23.70;90.70;;;;;;5033388;28;20029;-49
2022/08/26 00:13:22;;;;;;;8.77;5.13;;;23.90;90.70;;;;;;5031915;28;20075;-49
2022/08/26 00:15:49;;;;;;;10.77;5.85;;;23.90;90.60;;;;;;5032972;28;20475;-51
2022/08/26 00:18:15;;;;;;;7.20;5.30;;;24.00;90.60;;;;;;5032961;28;20057;-54
2022/08/26 00:20:40;;;;;;;9.82;5.20;;;24.00;90.90;;;;;;5033292;28;20057;-56
2022/08/26 00:23:06;;;;;;;14.85;4.95;;;24.00;90.90;;;;;;5031013;28;20028;-51
2022/08/26 00:25:32;;;;;;;7.88;5.32;;;23.90;90.70;;;;;;5031560;28;20084;-52
2022/08/26 00:27:58;;;;;;;6.85;5.75;;;23.90;90.60;;;;;;5032891;28;20096;-50
2022/08/26 00:30:27;;;;;;;11.82;5.68;;;23.90;90.70;;;;;;5032397;28;20100;-52
2022/08/26 00:32:53;;;;;;;6.63;4.78;;;23.80;90.80;;;;;;5032384;28;20444;-51
2022/08/26 00:35:18;;;;;;;8.35;5.13;;;23.80;90.90;;;;;;5033006;28;20044;-52
2022/08/26 00:37:44;;;;;;;8.15;5.32;;;23.70;91.00;;;;;;5032471;28;20025;-55
2022/08/26 00:40:19;;;;;;;7.97;5.63;;;23.70;91.10;;;;;;5032493;28;20037;-56
2022/08/26 00:42:45;;;;;;;10.85;5.05;;;23.70;91.10;;;;;;5033050;28;20044;-49
2022/08/26 00:45:12;;;;;;;5.60;4.65;;;23.70;91.20;;;;;;5033103;28;20058;-50
2022/08/26 00:47:47;;;;;;;9.57;4.93;;;23.70;91.20;;;;;;5032406;28;20240;-45
2022/08/26 00:50:14;;;;;;;;;;;23.70;91.20;;;;;;5032956;28;20494;-47
2022/08/26 00:52:41;;;;;;;13.15;4.97;;;23.70;91.30;;;;;;5030320;28;19912;-50
2022/08/26 00:55:11;;;;;;;11.02;5.18;;;23.70;91.20;;;;;;5032291;28;20030;-54
2022/08/26 00:57:38;;;;;;;8.45;5.40;;;23.70;91.30;;;;;;5032266;28;20489;-49
2022/08/26 01:00:10;;;;;;;5.65;4.97;;;23.70;91.40;;;;;;5032125;28;20394;-49
2022/08/26 01:02:36;;;;;;;8.32;5.40;;;23.60;91.50;;;;;;5031641;28;20040;-51
2022/08/26 01:05:04;;;;;;;10.38;5.40;;;23.60;91.60;;;;;;5030548;28;20493;-50
2022/08/26 01:07:32;;;;;;;6.85;5.78;;;23.50;91.80;;;;;;5030449;28;20037;-50
2022/08/26 01:10:00;;;;;;;14.73;5.05;;;23.50;92.30;;;;;;5031801;28;20025;-47
2022/08/26 01:12:27;;;;;;;7.28;5.07;;;23.40;92.10;;;;;;5031706;28;20428;-49
2022/08/26 01:14:54;;;;;;;8.60;5.10;;;23.40;92.20;;;;;;5031785;28;20033;-47
2022/08/26 01:17:19;;;;;;;6.03;4.47;;;23.30;92.40;;;;;;5031957;28;20037;-48
2022/08/26 01:19:53;;;;;;;8.65;5.72;;;23.30;92.60;;;;;;5031664;28;20087;-46
2022/08/26 01:22:37;;;;;;;8.75;5.70;;;23.30;92.50;;;;;;5030098;28;20501;-50
2022/08/26 01:25:03;;;;;;;16.52;5.53;;;23.30;92.60;;;;;;5031582;28;20416;-46
2022/08/26 01:27:31;;;;;;;7.18;5.03;;;23.30;92.60;;;;;;5030693;28;20022;-53
2022/08/26 01:29:57;;;;;;;6.68;5.05;;;23.30;92.80;;;;;;5031146;28;20029;-52
2022/08/26 01:32:24;;;;;;;10.95;5.45;;;23.30;92.90;;;;;;5031393;28;20108;-53
2022/08/26 01:34:50;;;;;;;8.20;4.50;;;23.30;92.90;;;;;;5030825;28;20022;-49
2022/08/26 01:37:22;;;;;;;10.82;5.50;;;23.30;93.00;;;;;;5031365;28;20109;-52
2022/08/26 01:39:51;;;;;;;5.88;4.63;;;23.30;93.10;;;;;;5031555;28;20025;-51
2022/08/26 01:42:19;;;;;;;12.65;6.38;;;23.30;93.10;;;;;;5030969;28;20075;-52
2022/08/26 01:44:56;;;;;;;10.25;5.20;;;23.30;93.40;;;;;;5031450;28;20029;-51
2022/08/26 01:47:24;;;;;;;10.35;5.32;;;23.20;93.20;;;;;;5031616;28;20030;-51
2022/08/26 01:49:53;;;;;;;8.85;5.50;;;23.20;93.30;;;;;;5031493;28;20048;-48
2022/08/26 01:52:23;;;;;;;8.95;4.80;;;23.10;93.40;;;;;;5031123;28;20029;-53
2022/08/26 01:54:50;;;;;;;13.50;5.97;;;23.10;93.50;;;;;;5031339;28;20045;-53
2022/08/26 01:57:17;;;;;;;7.80;5.60;;;23.10;93.60;;;;;;5031572;28;20036;-46
2022/08/26 01:59:43;;;;;;;14.25;5.55;;;23.10;93.60;;;;;;5031258;28;20033;-50
2022/08/26 02:02:08;;;;;;;6.13;5.15;;;23.00;93.60;;;;;;5030886;28;20036;-49
2022/08/26 02:04:40;;;;;;;8.13;5.13;;;23.00;93.80;;;;;;5031127;28;20152;-52
2022/08/26 02:07:08;;;;;;;8.23;5.07;;;23.00;94.00;;;;;;5031272;28;20025;-50
2022/08/26 02:09:37;;;;;;;6.10;5.30;;;22.90;94.00;;;;;;5031224;28;20021;-50
2022/08/26 02:12:04;;;;;;;18.83;5.22;;;22.90;94.10;;;;;;5031130;28;20104;-50
2022/08/26 02:14:36;;;;;;;8.93;5.90;;;22.80;94.30;;;;;;5031155;28;20056;-53
2022/08/26 02:17:02;;;;;;;9.60;5.10;;;22.70;94.40;;;;;;5030048;28;20281;-49
2022/08/26 02:19:34;;;;;;;8.73;5.60;;;22.80;94.50;;;;;;5031218;28;20018;-51
2022/08/26 02:22:10;;;;;;;7.57;4.70;;;22.70;94.60;;;;;;5031235;28;20357;-49
2022/08/26 02:24:46;;;;;;;7.07;5.38;;;22.70;94.60;;;;;;5031168;28;20438;-48
2022/08/26 02:27:20;;;;;;;6.70;5.20;;;22.70;94.80;;;;;;5031096;28;20017;-51
2022/08/26 02:29:55;;;;;;;7.43;6.22;;;22.60;94.90;;;;;;5030495;28;20018;-51
2022/08/26 02:32:21;;;;;;;6.43;5.75;;;22.50;95.10;;;;;;5029522;28;20026;-54
2022/08/26 02:34:47;;;;;;;6.93;5.55;;;22.40;95.50;;;;;;5030844;28;20025;-51
2022/08/26 02:37:13;;;;;;;10.07;5.57;;;22.40;95.70;;;;;;5031001;28;20029;-49
2022/08/26 02:39:41;;;;;;;7.25;5.65;;;22.30;96.00;;;;;;5031061;28;20083;-53
2022/08/26 02:42:07;;;;;;;10.70;5.75;;;22.30;96.10;;;;;;5030276;28;20568;-50
2022/08/26 02:44:32;;;;;;;12.45;7.75;;;22.30;96.20;;;;;;5030898;28;20076;-51
2022/08/26 02:46:59;;;;;;;11.25;5.43;;;22.30;96.30;;;;;;5032285;28;20057;-49
2022/08/26 02:49:25;;;;;;;5.88;5.28;;;22.40;96.30;;;;;;5034779;28;20097;-52
2022/08/26 02:51:51;;;;;;;6.63;5.50;;;22.30;96.40;;;;;;5034484;28;20155;-48
2022/08/26 02:54:17;;;;;;;8.60;5.22;;;22.20;96.60;;;;;;5034509;28;20026;-49
2022/08/26 02:56:44;;;;;;;11.35;5.88;;;22.00;96.90;;;;;;5034444;28;20038;-52
2022/08/26 02:59:11;;;;;;;6.28;5.68;;;22.00;97.00;;;;;;5034415;28;20021;-52
2022/08/26 03:01:37;;;;;;;6.68;5.72;;;22.00;97.20;;;;;;5034099;28;20022;-50
2022/08/26 03:04:05;;;;;;;6.43;5.82;;;21.90;97.30;;;;;;5034024;28;20096;-50
2022/08/26 03:06:30;;;;;;;8.45;5.65;;;21.90;97.50;;;;;;5034268;28;20026;-53
2022/08/26 03:08:56;;;;;;;7.45;5.85;;;21.80;97.60;;;;;;5034350;28;20025;-48
2022/08/26 03:11:22;;;;;;;7.20;5.97;;;21.80;97.80;;;;;;5034176;28;20029;-47
2022/08/26 03:13:48;;;;;;;7.68;6.28;;;21.80;97.90;;;;;;5034097;28;20396;-50
2022/08/26 03:16:15;;;;;;;6.28;5.70;;;21.70;97.90;;;;;;5034028;28;20112;-50
2022/08/26 03:18:40;;;;;;;8.80;6.18;;;21.70;98.00;;;;;;5032889;28;20182;-52
2022/08/26 03:21:09;;;;;;;8.35;5.68;;;21.70;98.00;;;;;;5033015;28;20116;-54
2022/08/26 03:23:37;;;;;;;6.25;5.07;;;21.70;98.00;;;;;;5033665;28;20105;-52
2022/08/26 03:26:03;;;;;;;5.68;5.03;;;21.80;98.10;;;;;;5034251;28;20439;-49
2022/08/26 03:28:29;;;;;;;9.15;5.63;;;21.80;98.10;;;;;;5032780;28;20053;-55
2022/08/26 03:30:56;;;;;;;8.70;6.05;;;21.80;97.90;;;;;;5033297;28;20035;-50
2022/08/26 03:33:23;;;;;;;7.15;5.80;;;21.80;98.00;;;;;;5033579;28;20013;-48
2022/08/26 03:35:48;;;;;;;7.50;5.60;;;21.80;97.80;;;;;;5033659;28;20055;-50
2022/08/26 03:38:14;;;;;;;7.07;5.50;;;21.90;97.70;;;;;;5032726;28;20025;-49
2022/08/26 03:40:41;;;;;;;6.40;5.15;;;21.90;97.70;;;;;;5033580;28;20477;-52
2022/08/26 03:43:07;;;;;;;6.63;5.28;;;21.80;97.80;;;;;;5033563;28;20030;-46
2022/08/26 03:45:34;;;;;;;6.57;5.15;;;21.80;98.00;;;;;;5033462;28;20401;-49
2022/08/26 03:48:00;;;;;;;6.45;5.50;;;21.70;97.80;;;;;;5033601;28;20080;-49
2022/08/26 03:50:25;;;;;;;13.00;5.68;;;21.70;97.90;;;;;;5033618;28;20401;-48
2022/08/26 03:52:53;;;;;;;6.32;4.60;;;21.70;98.00;;;;;;5033041;28;20087;-46
2022/08/26 03:55:21;;;;;;;5.70;5.20;;;21.70;98.00;;;;;;5033354;28;20116;-50
2022/08/26 03:57:46;;;;;;;6.07;5.03;;;21.60;97.90;;;;;;5032659;28;20034;-55
2022/08/26 04:00:14;;;;;;;6.28;4.85;;;21.60;98.00;;;;;;5031705;28;20393;-52
2022/08/26 04:02:42;;;;;;;5.70;5.13;;;21.60;98.00;;;;;;5032624;28;20033;-50
2022/08/26 04:05:08;;;;;;;10.90;5.32;;;21.60;97.90;;;;;;5033064;28;20124;-46
2022/08/26 04:07:34;;;;;;;9.15;5.43;;;21.60;98.00;;;;;;5033132;28;20021;-47
2022/08/26 04:09:59;;;;;;;5.20;4.70;;;21.60;97.90;;;;;;5033094;28;20029;-49
2022/08/26 04:12:26;;;;;;;7.05;5.05;;;21.60;97.90;;;;;;5032645;28;20072;-47
2022/08/26 04:14:51;;;;;;;8.93;5.30;;;21.70;97.80;;;;;;5032908;28;20055;-49
2022/08/26 04:17:18;;;;;;;11.35;5.25;;;21.70;97.60;;;;;;5032867;28;20033;-47
2022/08/26 04:19:43;;;;;;;10.38;5.43;;;21.60;97.70;;;;;;5033507;28;20028;-50
2022/08/26 04:22:10;;;;;;;6.60;5.28;;;21.60;97.70;;;;;;5032512;28;20030;-45
2022/08/26 04:24:38;;;;;;;11.70;5.35;;;21.60;97.80;;;;;;5032850;28;20029;-47
2022/08/26 04:27:04;;;;;;;11.07;5.13;;;21.60;97.60;;;;;;5032819;28;20489;-47
2022/08/26 04:29:30;;;;;;;6.70;5.18;;;21.70;97.50;;;;;;5032850;28;20032;-50
2022/08/26 04:31:55;;;;;;;7.28;5.32;;;21.70;97.50;;;;;;5030301;28;20025;-47
2022/08/26 04:34:22;;;;;;;6.68;5.03;;;21.70;97.60;;;;;;5032693;28;20056;-52
2022/08/26 04:36:49;;;;;;;6.68;5.35;;;21.70;97.60;;;;;;5032563;28;20030;-49
2022/08/26 04:39:15;;;;;;;5.80;5.25;;;21.70;97.50;;;;;;5032800;28;20232;-46
2022/08/26 04:41:42;;;;;;;13.25;5.78;;;21.80;97.60;;;;;;5032360;28;20031;-50
2022/08/26 04:44:08;;;;;;;5.78;4.85;;;21.70;97.60;;;;;;5032296;28;20029;-53
2022/08/26 04:46:35;;;;;;;7.38;4.57;;;21.80;97.60;;;;;;5032382;28;20033;-52
2022/08/26 04:49:01;;;;;;;11.18;4.82;;;21.80;97.60;;;;;;5032947;28;20025;-47
2022/08/26 04:51:27;;;;;;;10.80;5.07;;;21.80;97.50;;;;;;5032170;28;20032;-54
2022/08/26 04:53:57;;;;;;;6.22;4.47;;;21.80;97.40;;;;;;5032041;28;20477;-50
2022/08/26 04:56:24;;;;;;;7.90;4.60;;;21.80;97.60;;;;;;5032889;28;20142;-49
2022/08/26 04:58:50;;;;;;;6.30;4.65;;;21.80;97.60;;;;;;5030894;28;20435;-49
2022/08/26 05:01:15;;;;;;;5.10;4.60;;;21.90;97.50;;;;;;5031964;28;20030;-47
2022/08/26 05:03:41;;;;;;;8.32;4.75;;;21.90;97.50;;;;;;5031741;28;20045;-49
2022/08/26 05:06:06;;;;;;;6.25;5.10;;;22.00;97.50;;;;;;5032138;28;20029;-50
2022/08/26 05:08:32;;;;;;;5.43;4.30;;;22.10;97.40;;;;;;5032159;28;20087;-49
2022/08/26 05:10:58;;;;;;;7.15;4.30;;;22.10;97.30;;;;;;5031930;28;20031;-52
2022/08/26 05:13:26;;;;;;;10.48;5.05;;;22.20;97.20;;;;;;5031507;28;20021;-47
2022/08/26 05:15:51;;;;;;;9.57;4.93;;;22.30;97.20;;;;;;5032005;28;20022;-48
2022/08/26 05:18:20;;;;;;;6.68;5.03;;;22.40;97.20;;;;;;5031893;28;20547;-52
2022/08/26 05:20:49;;;;;;;7.43;5.88;;;22.50;97.00;;;;;;5030625;28;20018;-49
2022/08/26 05:23:15;;;;;;;16.85;5.60;;;22.50;96.80;;;;;;5030006;28;20108;-51
2022/08/26 05:25:43;;;;;;;9.80;6.18;;;22.70;96.70;;;;;;5053553;22;20101;-45
2022/08/26 05:28:10;;;;;;;7.72;4.90;;;22.80;96.40;;;;;;5051624;28;20017;-52
2022/08/26 05:30:37;;;;;;;12.63;5.63;;;23.10;96.10;;;;;;5050057;28;20484;-51
2022/08/26 05:33:03;;;;;;;7.55;5.30;;;23.40;95.80;;;;;;5051343;28;20446;-46
2022/08/26 05:35:33;;;;;;;9.80;5.32;;;23.50;95.30;;;;;;5050285;28;20443;-49
2022/08/26 05:38:04;;;;;;;10.70;5.15;;;23.40;95.30;;;;;;5051477;28;20025;-47
2022/08/26 05:40:34;;;;;;;15.88;4.97;;;23.20;95.70;;;;;;5051506;28;20036;-49
2022/08/26 05:43:00;;;;;;;13.75;5.55;;;23.10;96.00;;;;;;5051002;28;20453;-48
2022/08/26 05:45:26;;;;;;;10.38;5.32;;;23.00;96.20;;;;;;5051387;28;20100;-47
2022/08/26 05:47:52;;;;;;;13.95;5.68;;;22.90;96.50;;;;;;5051654;28;20025;-48
2022/08/26 05:50:21;;;;;;;11.05;5.43;;;22.80;96.70;;;;;;5051489;28;20400;-48
2022/08/26 05:52:48;;;;;;;15.60;5.80;;;22.70;97.00;;;;;;5051069;28;20496;-49
2022/08/26 05:55:14;;;;;;;9.95;6.00;;;22.60;97.20;;;;;;5051308;28;20036;-45
2022/08/26 05:57:39;;;;;;;8.15;4.93;;;22.60;97.80;;;;;;5051442;28;20454;-51
2022/08/26 06:00:05;;;;;;;9.60;4.82;;;22.60;98.10;;;;;;5051318;28;20033;-52
2022/08/26 06:02:31;;;;;;;10.07;5.07;;;22.50;98.50;;;;;;5050804;28;20029;-50
2022/08/26 06:04:56;;;;;;;9.73;5.10;;;22.50;98.80;;;;;;5051233;28;20035;-47
2022/08/26 06:08:09;;;;;;;11.68;5.45;;;22.50;98.30;;;;;;5051215;28;20021;-47
2022/08/26 06:10:12;;;;;;;12.60;5.45;;;22.40;98.10;;;;;;5051285;28;20032;-49
2022/08/26 06:12:38;;;;;;;9.65;5.88;;;22.40;98.10;;;;;;5050736;28;20465;-53
2022/08/26 06:15:04;;;;;;;10.73;5.53;;;22.40;98.10;;;;;;5047032;28;20112;-52
2022/08/26 06:17:30;;;;;;;11.43;5.97;;;22.50;98.10;;;;;;5030969;28;20061;-51
2022/08/26 06:19:55;;;;;;;7.10;5.45;;;22.60;97.80;;;;;;5031189;28;20044;-52
2022/08/26 06:27:50;;;;;;;6.72;5.00;;;23.10;96.80;;;;;;5035289;28;20036;-49
2022/08/26 06:30:15;;;;;;;12.27;5.25;;;23.30;96.40;;;;;;5035166;28;20022;-51
2022/08/26 06:32:41;;;;;;;6.95;5.65;;;23.40;96.00;;;;;;5036199;28;20409;-53
2022/08/26 06:35:06;;;;;;;10.63;5.10;;;23.40;96.10;;;;;;5035922;28;20035;-52
2022/08/26 06:37:32;;;;;;;10.45;5.28;;;23.30;96.00;;;;;;5035298;28;20037;-47
2022/08/26 06:39:57;;;;;;;6.97;4.97;;;23.20;95.90;;;;;;5033734;28;20036;-50
2022/08/26 06:42:23;;;;;;;18.33;5.15;;;23.20;96.10;;;;;;5034887;28;20033;-48
2022/08/26 06:44:48;;;;;;;11.50;5.13;;;23.40;96.10;;;;;;5034691;28;20025;-52
2022/08/26 06:47:14;;;;;;;7.30;4.95;;;23.50;96.20;;;;;;5034903;28;20030;-47
2022/08/26 06:49:39;;;;;;;11.10;5.03;;;23.60;95.80;;;;;;5034832;28;20067;-48
2022/08/26 06:52:05;;;;;;;7.05;5.28;;;23.80;95.30;;;;;;5034434;28;20032;-53
2022/08/26 06:54:30;;;;;;;13.45;5.10;;;24.10;95.00;;;;;;5034523;28;20025;-47
2022/08/26 06:56:56;;;;;;;9.18;4.97;;;24.80;93.90;;;;;;5034643;28;20033;-49
2022/08/26 06:59:22;;;;;;;7.53;4.70;;;25.80;92.50;;;;;;5034516;28;20036;-50
2022/08/26 07:01:48;;;;;;;14.27;4.82;;;26.50;91.10;;;;;;5034184;28;20018;-45
2022/08/26 07:04:15;;;;;;;10.38;5.38;;;26.70;90.50;;;;;;5032990;28;20539;-50
2022/08/26 07:06:45;;;;;;;11.93;5.40;;;26.90;90.30;;;;;;5034423;28;20088;-48
2022/08/26 07:09:11;;;;;;;9.90;5.28;;;27.00;90.30;;;;;;5034219;28;20109;-49
2022/08/26 07:11:38;;;;;;;11.77;5.57;;;27.00;90.20;;;;;;5034166;28;20108;-52
2022/08/26 07:14:04;;;;;;;5.75;4.90;;;27.10;90.10;;;;;;5034541;28;20408;-46
2022/08/26 07:16:30;;;;;;;7.15;4.97;;;27.50;89.60;;;;;;5034664;28;20035;-49
2022/08/26 07:18:56;;;;;;;11.70;5.20;;;28.00;87.90;;;;;;5034911;28;20116;-47
2022/08/26 07:21:23;;;;;;;7.88;4.75;;;28.70;86.50;;;;;;5034515;28;20477;-52
2022/08/26 07:23:48;;;;;;;10.27;5.00;;;29.30;84.60;;;;;;5034084;28;20047;-48
2022/08/26 07:26:20;;;;;;;12.25;5.32;;;29.50;83.30;;;;;;5034053;28;20459;-44
2022/08/26 07:28:49;;;;;;;11.75;4.95;;;29.50;82.60;;;;;;5034227;28;20044;-48
2022/08/26 07:31:16;;;;;;;11.68;5.47;;;29.20;82.50;;;;;;5034078;28;20030;-45
2022/08/26 07:33:42;;;;;;;6.82;4.95;;;28.60;83.70;;;;;;5033143;28;20056;-51
2022/08/26 07:36:09;;;;;;;11.63;4.70;;;27.60;86.00;;;;;;5034466;28;20505;-50
2022/08/26 07:38:35;;;;;;;13.55;5.65;;;27.20;87.40;;;;;;5033999;28;20069;-49
2022/08/26 07:41:01;;;;;;;8.82;5.20;;;26.70;89.10;;;;;;5034145;28;20033;-50
2022/08/26 07:43:28;;;;;;;8.48;5.63;;;26.30;90.30;;;;;;5033731;28;20021;-48
2022/08/26 07:45:54;;;;;;;15.55;6.47;;;26.10;90.80;;;;;;5034209;28;20026;-53
2022/08/26 07:48:20;;;;;;;6.40;5.28;;;25.90;91.10;;;;;;5033848;28;20745;-53
2022/08/26 07:50:46;;;;;;;11.32;5.38;;;25.80;91.60;;;;;;5033675;28;20053;-46
2022/08/26 07:53:12;;;;;;;12.77;5.65;;;25.60;92.00;;;;;;5033802;28;20071;-48
2022/08/26 07:55:37;;;;;;;9.73;5.93;;;25.70;92.20;;;;;;5034102;28;20030;-48
2022/08/26 07:58:04;;;;;;;6.13;5.38;;;25.60;91.90;;;;;;5033654;28;20065;-45
2022/08/26 08:00:31;;;;;;;6.53;5.18;;;25.50;92.00;;;;;;5033508;28;20083;-44
2022/08/26 08:02:58;;;;;;;10.20;5.50;;;25.40;92.40;;;;;;5033229;28;20037;-49
2022/08/26 08:05:24;;;;;;;11.52;5.38;;;25.40;92.30;;;;;;5034646;28;20075;-51
2022/08/26 08:07:51;;;;;;;11.05;5.18;;;25.40;92.30;;;;;;5033669;28;20025;-47
2022/08/26 08:10:21;;;;;;;5.88;5.30;;;25.40;92.70;;;;;;5033558;28;20049;-45
2022/08/26 08:12:47;;;;;;;6.30;5.53;;;25.50;92.90;;;;;;5032972;28;20029;-49
2022/08/26 08:15:14;;;;;;;8.18;5.63;;;25.60;92.80;;;;;;5033605;28;20037;-50
2022/08/26 08:17:42;;;;;;;6.68;5.60;;;25.60;92.60;;;;;;5052428;28;20032;-52
2022/08/26 08:20:08;;;;;;;7.10;5.45;;;25.60;93.40;;;;;;5050487;28;20492;-52
2022/08/26 08:22:34;;;;;;;7.22;5.03;;;25.60;93.60;;;;;;5043721;28;20484;-48
2022/08/26 08:25:00;;;;;;;10.18;6.25;;;25.60;93.80;;;;;;5051936;28;20060;-55
2022/08/26 08:27:25;;;;;;;18.10;5.90;;;25.60;94.20;;;;;;5044388;28;20049;-48
2022/08/26 08:29:55;;;;;;;8.63;5.95;;;25.60;94.10;;;;;;5033316;28;20417;-44
2022/08/26 08:32:22;;;;;;;6.97;4.97;;;25.70;94.20;;;;;;5048752;28;20062;-47
2022/08/26 08:34:47;;;;;;;7.35;5.07;;;25.80;93.40;;;;;;5051547;28;20033;-44
2022/08/26 08:37:13;;;;;;;7.22;5.50;;;25.70;93.30;;;;;;5052223;28;20074;-47
2022/08/26 08:39:38;;;;;;;10.65;5.70;;;25.70;93.70;;;;;;5052549;28;20044;-49
2022/08/26 08:42:32;;;;;;;8.82;5.38;;;25.70;93.90;;;;;;5039624;28;20504;-48
2022/08/26 08:45:04;;;;;;;9.52;5.40;;;25.60;94.10;;;;;;5047954;28;20025;-46
2022/08/26 08:47:43;;;;;;;9.88;5.47;;;25.60;94.20;;;;;;5051950;28;20033;-47
2022/08/26 08:50:23;;;;;;;7.47;4.93;;;25.60;94.50;;;;;;5050765;28;20103;-52
2022/08/26 08:53:12;;;;;;;10.43;5.63;;;25.60;94.80;;;;;;5043019;28;20025;-46
2022/08/26 08:56:00;;;;;;;7.35;6.20;;;25.50;94.50;;;;;;5032311;28;20489;-48
2022/08/26 08:59:03;;;;;;;8.27;5.55;;;25.50;94.20;;;;;;5050042;28;20063;-50
2022/08/26 09:01:58;;;;;;;9.57;5.60;;;25.40;94.40;;;;;;5052333;28;20025;-45
2022/08/26 09:04:32;;;;;;;11.25;5.43;;;25.40;94.60;;;;;;5052319;28;20040;-49
2022/08/26 09:07:00;;;;;;;12.65;5.78;;;25.40;94.30;;;;;;5052230;28;20424;-46
2022/08/26 09:09:36;;;;;;;11.75;5.55;;;25.40;94.20;;;;;;5042601;28;20113;-52
2022/08/26 09:12:06;;;;;;;7.93;5.35;;;25.30;94.40;;;;;;5032038;28;20021;-50
2022/08/26 09:14:31;;;;;;;13.98;6.10;;;25.20;94.40;;;;;;5050340;28;20032;-51
2022/08/26 09:17:25;;;;;;;6.20;5.68;;;25.20;94.40;;;;;;5055809;28;20503;-54
2022/08/26 09:19:57;;;;;;;12.35;5.70;;;25.20;94.90;;;;;;5052174;28;20388;-47
2022/08/26 09:22:30;;;;;;;19.35;6.28;;;25.10;94.70;;;;;;5051702;28;20126;-50
2022/08/26 09:24:56;;;;;;;14.93;5.78;;;25.10;94.90;;;;;;5051889;28;20400;-48
2022/08/26 09:27:36;;;;;;;9.82;5.97;;;25.00;95.10;;;;;;5052270;28;20049;-47
2022/08/26 09:30:03;;;;;;;9.43;6.75;;;25.00;95.20;;;;;;5047280;28;20025;-49
2022/08/26 09:32:30;;;;;;;13.57;6.32;;;24.90;95.40;;;;;;5031206;28;20034;-46
2022/08/26 09:35:02;;;;;;;14.52;6.32;;;24.80;95.50;;;;;;5043731;28;20105;-47
2022/08/26 09:37:34;;;;;;;10.18;6.70;;;24.70;95.60;;;;;;5051504;28;20049;-47
2022/08/26 09:40:21;;;;;;;13.00;6.20;;;24.70;95.80;;;;;;5051372;28;20121;-49
2022/08/26 09:43:03;;;;;;;11.75;5.68;;;24.60;95.80;;;;;;5032929;28;20036;-43
2022/08/26 09:45:29;;;;;;;12.10;6.82;;;24.60;96.20;;;;;;5050160;28;20642;-45
2022/08/26 09:47:55;;;;;;;9.23;6.40;;;24.50;96.60;;;;;;5044772;28;20104;-46
2022/08/26 09:50:34;;;;;;;10.10;6.75;;;24.40;97.00;;;;;;5050062;28;20025;-50
2022/08/26 09:53:03;;;;;;;8.40;6.78;;;24.30;97.30;;;;;;5048767;28;20108;-55
2022/08/26 09:55:29;;;;;;;12.95;5.60;;;24.30;97.50;;;;;;5049818;28;20063;-46
2022/08/26 09:57:54;;;;;;;11.32;6.18;;;24.20;97.60;;;;;;5050419;28;20449;-54
2022/08/26 10:00:39;;;;;;;19.80;7.43;;;24.10;98.00;;;;;;5050775;28;20484;-51
2022/08/26 10:03:09;;;;;;;9.03;7.87;;;24.10;98.10;;;;;;5029714;28;20247;-48
2022/08/26 10:05:55;;;;;;;13.52;6.65;;;24.10;98.40;;;;;;5030013;28;20041;-53
2022/08/26 10:08:31;;;;;;;8.20;6.88;;;24.00;98.70;;;;;;5031362;28;20025;-48
2022/08/26 10:11:00;;;;;;;11.45;6.95;;;24.00;99.00;;;;;;5047615;28;20029;-54
2022/08/26 10:13:35;;;;;;;9.70;6.70;;;24.00;99.40;;;;;;5051096;28;20392;-47
2022/08/26 10:16:19;;;;;;;10.00;7.20;;;24.00;99.50;;;;;;5051170;28;20511;-53
2022/08/26 10:18:51;;;;;;;13.35;6.93;;;24.00;99.90;;;;;;5050973;28;20033;-49
2022/08/26 10:21:28;;;;;;;11.73;6.68;;;24.00;99.90;;;;;;5051263;28;20033;-49
2022/08/26 10:23:56;;;;;;;11.50;7.82;;;24.00;99.90;;;;;;5049889;28;20064;-48
2022/08/26 10:26:24;;;;;;;16.77;8.32;;;24.10;99.90;;;;;;5050949;28;20519;-50
2022/08/26 10:29:05;;;;;;;14.90;6.88;;;23.90;99.90;;;;;;5051497;28;20025;-52
2022/08/26 10:31:42;;;;;;;10.73;5.95;;;23.80;99.90;;;;;;5051382;28;20032;-49
2022/08/26 10:34:09;;;;;;;7.32;4.47;;;23.70;99.90;;;;;;5051093;28;20025;-48
2022/08/26 10:36:50;;;;;;;7.82;3.70;;;23.70;99.90;;;;;;5050612;28;20039;-46
2022/08/26 10:39:30;;;;;;;14.57;12.35;;;23.70;99.50;;;;;;5051183;28;20021;-49
2022/08/26 10:42:01;;;;;;;10.18;7.28;;;23.80;98.80;;;;;;5050779;28;20040;-48
2022/08/26 10:44:32;;;;;;;9.93;5.20;;;23.90;99.90;;;;;;5049733;28;20365;-51
2022/08/26 10:47:04;;;;;;;8.00;5.55;;;23.80;99.90;;;;;;5050726;28;20058;-50
2022/08/26 10:49:30;;;;;;;14.75;6.57;;;23.80;99.90;;;;;;5050783;28;20489;-47
2022/08/26 10:52:06;;;;;;;7.63;6.20;;;23.70;99.90;;;;;;5050584;28;20033;-46
2022/08/26 10:55:02;;;;;;;12.40;6.35;;;23.50;99.90;;;;;;5051036;28;20029;-47
2022/08/26 10:57:53;;;;;;;8.68;6.63;;;23.30;99.90;;;;;;5050865;28;20021;-51
2022/08/26 11:03:48;;;;;;;10.30;6.82;;;23.20;99.90;;;;;;5050343;28;20108;-48
2022/08/26 11:06:22;;;;;;;11.82;7.32;;;23.20;99.90;;;;;;5050516;28;20057;-48
2022/08/26 11:08:53;;;;;;;13.52;7.35;;;23.10;99.90;;;;;;5053307;28;20025;-43
2022/08/26 11:11:40;;;;;;;15.18;9.15;;;23.20;99.90;;;;;;5054035;28;20051;-54
2022/08/26 11:14:20;;;;;;;13.77;8.73;;;23.20;99.90;;;;;;5054003;28;20108;-50
2022/08/26 11:16:51;;;;;;;13.73;8.57;;;23.30;99.90;;;;;;5054074;28;20506;-48
2022/08/26 11:19:54;;;;;;;17.13;7.93;;;23.30;99.90;;;;;;5054052;28;20029;-51
2022/08/26 11:22:34;;;;;;;11.15;8.10;;;23.20;99.90;;;;;;5053605;28;20031;-50
2022/08/26 11:28:06;;;;;;;;;;;23.40;99.90;;;;;;5071524;28;20079;-51
2022/08/26 11:30:34;;;;;;;13.63;9.57;;;23.50;99.90;;;;;;5073941;28;19904;-48
2022/08/26 11:33:00;;;;;;;12.27;8.05;;;23.60;99.90;;;;;;5073596;28;20028;-46
2022/08/26 11:35:25;;;;;;;9.93;8.93;;;23.60;99.90;;;;;;5055880;28;20016;-49
2022/08/26 11:37:59;;;;;;;13.82;8.88;;;23.70;99.90;;;;;;5073748;28;20109;-52
2022/08/26 11:40:28;;;;;;;17.90;11.40;;;23.80;99.90;;;;;;5073659;28;20034;-46
2022/08/26 11:42:57;;;;;;;18.08;12.07;;;24.10;99.90;;;;;;5055204;28;20033;-50
2022/08/26 11:45:42;;;;;;;19.58;10.45;;;24.20;99.90;;;;;;5073475;28;20373;-48
2022/08/26 11:48:20;;;;;;;13.57;9.55;;;24.30;99.90;;;;;;5073552;28;20039;-48
2022/08/26 11:50:57;;;;;;;18.67;10.73;;;24.60;99.90;;;;;;5073750;28;20395;-49
2022/08/26 11:53:24;;;;;;;14.77;9.77;;;25.00;99.90;;;;;;5073341;28;20123;-46
2022/08/26 11:55:52;;;;;;;15.35;9.63;;;25.30;99.90;;;;;;5073628;28;20052;-45
2022/08/26 11:58:20;;;;;;;13.35;8.80;;;25.70;99.90;;;;;;5074007;28;20414;-47
2022/08/26 12:00:54;;;;;;;11.98;9.65;;;26.00;99.90;;;;;;5073600;28;20028;-44
2022/08/26 12:03:23;;;;;;;18.33;10.15;;;26.30;99.90;;;;;;5073371;28;20067;-45
2022/08/26 12:05:51;;;;;;;18.98;10.13;;;26.70;99.90;;;;;;5073638;28;20033;-48
2022/08/26 12:08:20;;;;;;;78.75;53.78;;;26.90;99.90;;;;;;5055727;28;20504;-47
2022/08/26 12:10:47;;;;;;;59.05;46.53;;;27.20;99.90;;;;;;5073442;28;20021;-48
2022/08/26 12:13:24;;;;;;;76.32;54.35;;;27.50;99.90;;;;;;5055112;28;20071;-48
2022/08/26 12:15:56;;;;;;;37.42;28.30;;;27.70;99.90;;;;;;5073554;28;20036;-49
2022/08/26 12:18:31;;;;;;;15.93;11.82;;;27.70;99.90;;;;;;5055627;28;20058;-47
2022/08/26 12:21:19;;;;;;;13.55;10.35;;;27.80;99.90;;;;;;5072820;28;20024;-49
2022/08/26 12:23:46;;;;;;;10.52;9.48;;;27.90;99.90;;;;;;5054957;28;20040;-48
2022/08/26 12:26:38;;;;;;;17.52;10.25;;;27.90;99.90;;;;;;5055575;28;20060;-49
2022/08/26 12:29:08;;;;;;;15.38;10.80;;;27.90;99.90;;;;;;5053752;28;20032;-48
2022/08/26 12:31:38;;;;;;;13.52;10.43;;;28.00;99.90;;;;;;5073592;28;20028;-51
2022/08/26 12:34:07;;;;;;;15.07;10.57;;;28.10;99.90;;;;;;5055571;28;20031;-52
2022/08/26 12:36:47;;;;;;;22.45;11.25;;;28.20;99.90;;;;;;5038906;28;20392;-46
2022/08/26 12:39:29;;;;;;;15.45;12.18;;;28.30;99.90;;;;;;5055215;28;20514;-46
2022/08/26 12:42:11;;;;;;;22.10;11.45;;;28.30;99.90;;;;;;5055211;28;20029;-51
2022/08/26 12:44:48;;;;;;;16.02;10.43;;;28.30;99.90;;;;;;5055485;28;20071;-51
2022/08/26 12:47:29;;;;;;;12.13;10.40;;;28.30;99.90;;;;;;5072381;28;20079;-53
2022/08/26 12:50:24;;;;;;;13.82;10.95;;;28.30;99.90;;;;;;5039886;28;20051;-48
2022/08/26 12:53:02;;;;;;;11.10;9.50;;;28.30;99.90;;;;;;5072722;28;20074;-51
2022/08/26 12:55:42;;;;;;;10.13;9.00;;;28.30;99.90;;;;;;5072947;28;20098;-46
2022/08/26 12:58:17;;;;;;;12.57;8.57;;;28.20;99.50;;;;;;5073147;28;20488;-49
2022/08/26 13:01:17;;;;;;;11.77;7.63;;;28.10;98.90;;;;;;5055237;28;20051;-49
2022/08/26 13:03:44;;;;;;;10.32;8.32;;;28.20;98.40;;;;;;5055417;28;20029;-51
2022/08/26 13:06:13;;;;;;;9.30;7.78;;;28.20;98.70;;;;;;5057672;28;20052;-53